sensor_id;sensor_type;location;lat;lon;timestamp;P1;durP1;ratioP1;P2;durP2;ratioP2
83380;SDS011;73285;50.882;5.984;2023-12-04T00:01:12;11.57;;;4.13;;
83380;SDS011;73285;50.882;5.984;2023-12-04T00:03:38;9.32;;;3.42;;
83380;SDS011;73285;50.882;5.984;2023-12-04T00:06:04;12.60;;;4.90;;
83380;SDS011;73285;50.882;5.984;2023-12-04T00:08:29;10.88;;;4.43;;
83380;SDS011;73285;50.882;5.984;2023-12-04T00:10:55;10.47;;;4.27;;
83380;SDS011;73285;50.882;5.984;2023-12-04T00:13:20;10.10;;;3.70;;
83380;SDS011;73285;50.882;5.984;2023-12-04T00:15:46;9.63;;;4.25;;
83380;SDS011;73285;50.882;5.984;2023-12-04T00:18:11;10.50;;;4.03;;
83380;SDS011;73285;50.882;5.984;2023-12-04T00:20:37;9.43;;;3.40;;
83380;SDS011;73285;50.882;5.984;2023-12-04T00:23:02;11.47;;;4.30;;
83380;SDS011;73285;50.882;5.984;2023-12-04T00:25:27;10.67;;;3.77;;
83380;SDS011;73285;50.882;5.984;2023-12-04T00:27:53;10.33;;;4.17;;
83380;SDS011;73285;50.882;5.984;2023-12-04T00:30:18;8.73;;;3.30;;
83380;SDS011;73285;50.882;5.984;2023-12-04T00:32:44;9.43;;;4.10;;
83380;SDS011;73285;50.882;5.984;2023-12-04T00:35:09;9.57;;;3.70;;
83380;SDS011;73285;50.882;5.984;2023-12-04T00:37:34;12.07;;;4.43;;
83380;SDS011;73285;50.882;5.984;2023-12-04T00:40:03;9.60;;;4.00;;
83380;SDS011;73285;50.882;5.984;2023-12-04T00:42:29;8.97;;;3.90;;
83380;SDS011;73285;50.882;5.984;2023-12-04T00:44:55;9.73;;;4.13;;
83380;SDS011;73285;50.882;5.984;2023-12-04T00:47:20;12.23;;;4.60;;
83380;SDS011;73285;50.882;5.984;2023-12-04T00:49:46;9.93;;;4.00;;
83380;SDS011;73285;50.882;5.984;2023-12-04T00:52:11;7.97;;;3.40;;
83380;SDS011;73285;50.882;5.984;2023-12-04T00:54:38;9.67;;;4.07;;
83380;SDS011;73285;50.882;5.984;2023-12-04T00:57:05;9.32;;;3.63;;
83380;SDS011;73285;50.882;5.984;2023-12-04T00:59:31;11.30;;;4.20;;
83380;SDS011;73285;50.882;5.984;2023-12-04T01:01:56;10.30;;;3.70;;
83380;SDS011;73285;50.882;5.984;2023-12-04T01:04:22;10.27;;;3.47;;
83380;SDS011;73285;50.882;5.984;2023-12-04T01:06:47;9.43;;;3.97;;
83380;SDS011;73285;50.882;5.984;2023-12-04T01:09:13;9.20;;;3.33;;
83380;SDS011;73285;50.882;5.984;2023-12-04T01:11:38;8.83;;;3.20;;
83380;SDS011;73285;50.882;5.984;2023-12-04T01:14:04;10.02;;;3.83;;
83380;SDS011;73285;50.882;5.984;2023-12-04T01:16:29;8.47;;;3.03;;
83380;SDS011;73285;50.882;5.984;2023-12-04T01:18:55;9.73;;;3.65;;
83380;SDS011;73285;50.882;5.984;2023-12-04T01:21:23;10.53;;;3.40;;
83380;SDS011;73285;50.882;5.984;2023-12-04T01:23:49;8.70;;;3.35;;
83380;SDS011;73285;50.882;5.984;2023-12-04T01:26:14;8.20;;;3.30;;
83380;SDS011;73285;50.882;5.984;2023-12-04T01:28:40;10.27;;;3.97;;
83380;SDS011;73285;50.882;5.984;2023-12-04T01:31:05;9.10;;;3.30;;
83380;SDS011;73285;50.882;5.984;2023-12-04T01:33:31;8.93;;;3.60;;
83380;SDS011;73285;50.882;5.984;2023-12-04T01:35:57;10.23;;;3.40;;
83380;SDS011;73285;50.882;5.984;2023-12-04T01:38:22;10.23;;;3.40;;
83380;SDS011;73285;50.882;5.984;2023-12-04T01:40:48;8.20;;;3.23;;
83380;SDS011;73285;50.882;5.984;2023-12-04T01:43:13;9.32;;;3.72;;
83380;SDS011;73285;50.882;5.984;2023-12-04T01:45:40;8.27;;;2.93;;
83380;SDS011;73285;50.882;5.984;2023-12-04T01:48:06;10.15;;;3.78;;
83380;SDS011;73285;50.882;5.984;2023-12-04T01:50:32;10.43;;;3.88;;
83380;SDS011;73285;50.882;5.984;2023-12-04T01:52:59;9.85;;;4.10;;
83380;SDS011;73285;50.882;5.984;2023-12-04T01:55:25;10.67;;;3.83;;
83380;SDS011;73285;50.882;5.984;2023-12-04T01:57:50;9.40;;;3.70;;
83380;SDS011;73285;50.882;5.984;2023-12-04T02:00:15;10.50;;;3.77;;
83380;SDS011;73285;50.882;5.984;2023-12-04T02:02:42;11.13;;;3.70;;
83380;SDS011;73285;50.882;5.984;2023-12-04T02:05:08;11.43;;;4.47;;
83380;SDS011;73285;50.882;5.984;2023-12-04T02:07:34;10.05;;;3.50;;
83380;SDS011;73285;50.882;5.984;2023-12-04T02:10:01;9.32;;;3.70;;
83380;SDS011;73285;50.882;5.984;2023-12-04T02:12:27;10.93;;;3.55;;
83380;SDS011;73285;50.882;5.984;2023-12-04T02:14:53;10.47;;;3.67;;
83380;SDS011;73285;50.882;5.984;2023-12-04T02:17:18;9.77;;;3.50;;
83380;SDS011;73285;50.882;5.984;2023-12-04T02:19:44;9.57;;;3.55;;
83380;SDS011;73285;50.882;5.984;2023-12-04T02:22:09;9.07;;;3.60;;
83380;SDS011;73285;50.882;5.984;2023-12-04T02:24:35;9.20;;;3.80;;
83380;SDS011;73285;50.882;5.984;2023-12-04T02:27:12;8.70;;;3.75;;
83380;SDS011;73285;50.882;5.984;2023-12-04T02:29:47;8.80;;;3.13;;
83380;SDS011;73285;50.882;5.984;2023-12-04T02:32:27;7.82;;;2.83;;
83380;SDS011;73285;50.882;5.984;2023-12-04T02:34:54;7.70;;;2.80;;
83380;SDS011;73285;50.882;5.984;2023-12-04T02:37:20;9.13;;;2.97;;
83380;SDS011;73285;50.882;5.984;2023-12-04T02:39:46;7.10;;;2.47;;
83380;SDS011;73285;50.882;5.984;2023-12-04T02:42:13;6.50;;;2.53;;
83380;SDS011;73285;50.882;5.984;2023-12-04T02:44:39;7.27;;;2.53;;
83380;SDS011;73285;50.882;5.984;2023-12-04T02:47:04;7.97;;;2.57;;
83380;SDS011;73285;50.882;5.984;2023-12-04T02:49:30;6.03;;;2.08;;
83380;SDS011;73285;50.882;5.984;2023-12-04T02:51:55;6.30;;;2.47;;
83380;SDS011;73285;50.882;5.984;2023-12-04T02:54:22;6.22;;;2.13;;
83380;SDS011;73285;50.882;5.984;2023-12-04T02:56:48;6.03;;;2.40;;
83380;SDS011;73285;50.882;5.984;2023-12-04T02:59:13;6.83;;;2.60;;
83380;SDS011;73285;50.882;5.984;2023-12-04T03:01:38;7.40;;;2.80;;
83380;SDS011;73285;50.882;5.984;2023-12-04T03:04:04;6.27;;;2.37;;
83380;SDS011;73285;50.882;5.984;2023-12-04T03:06:29;7.10;;;2.70;;
83380;SDS011;73285;50.882;5.984;2023-12-04T03:08:55;5.23;;;2.17;;
83380;SDS011;73285;50.882;5.984;2023-12-04T03:11:20;7.20;;;2.15;;
83380;SDS011;73285;50.882;5.984;2023-12-04T03:13:45;5.20;;;1.70;;
83380;SDS011;73285;50.882;5.984;2023-12-04T03:16:14;6.93;;;2.10;;
83380;SDS011;73285;50.882;5.984;2023-12-04T03:18:41;7.13;;;2.88;;
83380;SDS011;73285;50.882;5.984;2023-12-04T03:21:06;6.13;;;2.03;;
83380;SDS011;73285;50.882;5.984;2023-12-04T03:23:32;6.70;;;2.38;;
83380;SDS011;73285;50.882;5.984;2023-12-04T03:25:57;6.47;;;2.20;;
83380;SDS011;73285;50.882;5.984;2023-12-04T03:28:23;4.43;;;1.30;;
83380;SDS011;73285;50.882;5.984;2023-12-04T03:30:48;7.20;;;2.03;;
83380;SDS011;73285;50.882;5.984;2023-12-04T03:33:13;6.67;;;2.23;;
83380;SDS011;73285;50.882;5.984;2023-12-04T03:35:39;6.03;;;2.35;;
83380;SDS011;73285;50.882;5.984;2023-12-04T03:38:04;6.10;;;2.20;;
83380;SDS011;73285;50.882;5.984;2023-12-04T03:40:30;5.97;;;2.00;;
83380;SDS011;73285;50.882;5.984;2023-12-04T03:42:56;5.82;;;2.05;;
83380;SDS011;73285;50.882;5.984;2023-12-04T03:45:22;6.40;;;2.33;;
83380;SDS011;73285;50.882;5.984;2023-12-04T03:47:47;5.40;;;1.97;;
83380;SDS011;73285;50.882;5.984;2023-12-04T03:50:12;8.57;;;2.67;;
83380;SDS011;73285;50.882;5.984;2023-12-04T03:52:38;6.47;;;2.70;;
83380;SDS011;73285;50.882;5.984;2023-12-04T03:55:03;6.97;;;2.10;;
83380;SDS011;73285;50.882;5.984;2023-12-04T03:57:29;5.50;;;1.83;;
83380;SDS011;73285;50.882;5.984;2023-12-04T03:59:55;7.70;;;2.20;;
83380;SDS011;73285;50.882;5.984;2023-12-04T04:02:20;6.00;;;2.43;;
83380;SDS011;73285;50.882;5.984;2023-12-04T04:04:45;5.50;;;2.08;;
83380;SDS011;73285;50.882;5.984;2023-12-04T04:07:11;8.13;;;2.47;;
83380;SDS011;73285;50.882;5.984;2023-12-04T04:09:36;6.67;;;2.50;;
83380;SDS011;73285;50.882;5.984;2023-12-04T04:12:02;5.45;;;2.30;;
83380;SDS011;73285;50.882;5.984;2023-12-04T04:14:27;5.53;;;2.07;;
83380;SDS011;73285;50.882;5.984;2023-12-04T04:16:53;6.37;;;1.87;;
83380;SDS011;73285;50.882;5.984;2023-12-04T04:19:18;5.28;;;2.05;;
83380;SDS011;73285;50.882;5.984;2023-12-04T04:21:44;5.93;;;1.53;;
83380;SDS011;73285;50.882;5.984;2023-12-04T04:24:09;5.93;;;2.00;;
83380;SDS011;73285;50.882;5.984;2023-12-04T04:26:35;5.53;;;2.00;;
83380;SDS011;73285;50.882;5.984;2023-12-04T04:29:01;5.03;;;1.67;;
83380;SDS011;73285;50.882;5.984;2023-12-04T04:31:26;5.13;;;2.10;;
83380;SDS011;73285;50.882;5.984;2023-12-04T04:33:51;6.13;;;2.50;;
83380;SDS011;73285;50.882;5.984;2023-12-04T04:36:17;5.47;;;2.37;;
83380;SDS011;73285;50.882;5.984;2023-12-04T04:38:42;5.90;;;1.80;;
83380;SDS011;73285;50.882;5.984;2023-12-04T04:41:12;6.20;;;2.20;;
83380;SDS011;73285;50.882;5.984;2023-12-04T04:43:39;6.88;;;2.35;;
83380;SDS011;73285;50.882;5.984;2023-12-04T04:46:04;5.60;;;1.83;;
83380;SDS011;73285;50.882;5.984;2023-12-04T04:48:30;3.97;;;1.50;;
83380;SDS011;73285;50.882;5.984;2023-12-04T04:50:55;5.40;;;2.00;;
83380;SDS011;73285;50.882;5.984;2023-12-04T04:53:21;5.95;;;2.17;;
83380;SDS011;73285;50.882;5.984;2023-12-04T04:55:46;4.83;;;2.00;;
83380;SDS011;73285;50.882;5.984;2023-12-04T04:58:11;4.93;;;1.83;;
83380;SDS011;73285;50.882;5.984;2023-12-04T05:00:37;5.80;;;1.60;;
83380;SDS011;73285;50.882;5.984;2023-12-04T05:03:02;6.73;;;1.97;;
83380;SDS011;73285;50.882;5.984;2023-12-04T05:05:28;6.40;;;2.40;;
83380;SDS011;73285;50.882;5.984;2023-12-04T05:07:53;5.00;;;1.70;;
83380;SDS011;73285;50.882;5.984;2023-12-04T05:10:18;5.13;;;1.90;;
83380;SDS011;73285;50.882;5.984;2023-12-04T05:12:44;4.30;;;1.60;;
83380;SDS011;73285;50.882;5.984;2023-12-04T05:15:09;4.33;;;1.53;;
83380;SDS011;73285;50.882;5.984;2023-12-04T05:17:35;5.13;;;1.70;;
83380;SDS011;73285;50.882;5.984;2023-12-04T05:20:00;5.37;;;1.57;;
83380;SDS011;73285;50.882;5.984;2023-12-04T05:22:26;3.93;;;1.23;;
83380;SDS011;73285;50.882;5.984;2023-12-04T05:24:51;3.93;;;1.47;;
83380;SDS011;73285;50.882;5.984;2023-12-04T05:27:16;4.60;;;1.50;;
83380;SDS011;73285;50.882;5.984;2023-12-04T05:29:42;4.60;;;1.60;;
83380;SDS011;73285;50.882;5.984;2023-12-04T05:32:07;4.07;;;1.57;;
83380;SDS011;73285;50.882;5.984;2023-12-04T05:34:32;4.23;;;1.70;;
83380;SDS011;73285;50.882;5.984;2023-12-04T05:36:58;4.47;;;1.70;;
83380;SDS011;73285;50.882;5.984;2023-12-04T05:39:23;4.33;;;1.60;;
83380;SDS011;73285;50.882;5.984;2023-12-04T05:41:49;4.13;;;1.33;;
83380;SDS011;73285;50.882;5.984;2023-12-04T05:44:14;4.00;;;1.60;;
83380;SDS011;73285;50.882;5.984;2023-12-04T05:46:40;3.77;;;1.50;;
83380;SDS011;73285;50.882;5.984;2023-12-04T05:49:05;4.35;;;1.20;;
83380;SDS011;73285;50.882;5.984;2023-12-04T05:51:30;3.63;;;1.20;;
83380;SDS011;73285;50.882;5.984;2023-12-04T05:53:56;3.77;;;1.43;;
83380;SDS011;73285;50.882;5.984;2023-12-04T05:56:21;3.60;;;1.17;;
83380;SDS011;73285;50.882;5.984;2023-12-04T05:58:47;4.35;;;1.20;;
83380;SDS011;73285;50.882;5.984;2023-12-04T06:01:13;4.77;;;1.20;;
83380;SDS011;73285;50.882;5.984;2023-12-04T06:03:40;3.33;;;1.30;;
83380;SDS011;73285;50.882;5.984;2023-12-04T06:06:05;3.90;;;1.33;;
83380;SDS011;73285;50.882;5.984;2023-12-04T06:08:31;3.83;;;1.10;;
83380;SDS011;73285;50.882;5.984;2023-12-04T06:10:56;3.80;;;1.27;;
83380;SDS011;73285;50.882;5.984;2023-12-04T06:13:22;3.43;;;0.90;;
83380;SDS011;73285;50.882;5.984;2023-12-04T06:15:48;3.70;;;1.23;;
83380;SDS011;73285;50.882;5.984;2023-12-04T06:18:13;4.57;;;1.10;;
83380;SDS011;73285;50.882;5.984;2023-12-04T06:20:39;3.43;;;1.27;;
83380;SDS011;73285;50.882;5.984;2023-12-04T06:23:04;4.07;;;1.40;;
83380;SDS011;73285;50.882;5.984;2023-12-04T06:25:30;3.65;;;1.08;;
83380;SDS011;73285;50.882;5.984;2023-12-04T06:27:55;5.30;;;1.20;;
83380;SDS011;73285;50.882;5.984;2023-12-04T06:30:21;4.20;;;1.17;;
83380;SDS011;73285;50.882;5.984;2023-12-04T06:32:47;6.23;;;1.07;;
83380;SDS011;73285;50.882;5.984;2023-12-04T06:35:13;3.58;;;1.08;;
83380;SDS011;73285;50.882;5.984;2023-12-04T06:37:40;3.30;;;0.88;;
83380;SDS011;73285;50.882;5.984;2023-12-04T06:40:05;2.93;;;1.20;;
83380;SDS011;73285;50.882;5.984;2023-12-04T06:42:34;4.05;;;1.02;;
83380;SDS011;73285;50.882;5.984;2023-12-04T06:45:00;2.67;;;0.80;;
83380;SDS011;73285;50.882;5.984;2023-12-04T06:47:26;3.77;;;0.90;;
83380;SDS011;73285;50.882;5.984;2023-12-04T06:50:10;2.10;;;0.70;;
83380;SDS011;73285;50.882;5.984;2023-12-04T06:52:38;4.38;;;0.90;;
83380;SDS011;73285;50.882;5.984;2023-12-04T06:55:04;3.00;;;1.00;;
83380;SDS011;73285;50.882;5.984;2023-12-04T06:57:30;3.45;;;0.73;;
83380;SDS011;73285;50.882;5.984;2023-12-04T06:59:55;1.93;;;0.70;;
83380;SDS011;73285;50.882;5.984;2023-12-04T07:02:20;2.00;;;0.63;;
83380;SDS011;73285;50.882;5.984;2023-12-04T07:04:46;4.13;;;0.90;;
83380;SDS011;73285;50.882;5.984;2023-12-04T07:07:12;2.95;;;0.63;;
83380;SDS011;73285;50.882;5.984;2023-12-04T07:09:37;3.53;;;0.90;;
83380;SDS011;73285;50.882;5.984;2023-12-04T07:12:03;2.35;;;0.70;;
83380;SDS011;73285;50.882;5.984;2023-12-04T07:14:28;1.70;;;0.50;;
83380;SDS011;73285;50.882;5.984;2023-12-04T07:16:54;3.83;;;0.50;;
83380;SDS011;73285;50.882;5.984;2023-12-04T07:19:19;2.20;;;0.60;;
83380;SDS011;73285;50.882;5.984;2023-12-04T07:21:45;3.00;;;0.50;;
83380;SDS011;73285;50.882;5.984;2023-12-04T07:24:11;2.73;;;0.73;;
83380;SDS011;73285;50.882;5.984;2023-12-04T07:26:36;3.20;;;0.60;;
83380;SDS011;73285;50.882;5.984;2023-12-04T07:29:03;2.07;;;0.60;;
83380;SDS011;73285;50.882;5.984;2023-12-04T07:31:28;2.33;;;0.52;;
83380;SDS011;73285;50.882;5.984;2023-12-04T07:33:54;4.27;;;0.43;;
83380;SDS011;73285;50.882;5.984;2023-12-04T07:36:19;3.20;;;0.53;;
83380;SDS011;73285;50.882;5.984;2023-12-04T07:38:45;3.10;;;0.68;;
83380;SDS011;73285;50.882;5.984;2023-12-04T07:41:10;3.63;;;1.07;;
83380;SDS011;73285;50.882;5.984;2023-12-04T07:43:36;2.43;;;0.73;;
83380;SDS011;73285;50.882;5.984;2023-12-04T07:46:01;2.97;;;0.70;;
83380;SDS011;73285;50.882;5.984;2023-12-04T07:48:28;3.53;;;0.70;;
83380;SDS011;73285;50.882;5.984;2023-12-04T07:50:55;3.72;;;0.88;;
83380;SDS011;73285;50.882;5.984;2023-12-04T07:53:20;2.97;;;0.80;;
83380;SDS011;73285;50.882;5.984;2023-12-04T07:55:46;4.17;;;0.70;;
83380;SDS011;73285;50.882;5.984;2023-12-04T07:58:13;3.00;;;0.90;;
83380;SDS011;73285;50.882;5.984;2023-12-04T08:00:38;3.77;;;0.87;;
83380;SDS011;73285;50.882;5.984;2023-12-04T08:03:04;2.77;;;0.73;;
83380;SDS011;73285;50.882;5.984;2023-12-04T08:05:29;3.13;;;0.87;;
83380;SDS011;73285;50.882;5.984;2023-12-04T08:07:57;5.22;;;1.10;;
83380;SDS011;73285;50.882;5.984;2023-12-04T08:10:22;2.28;;;0.90;;
83380;SDS011;73285;50.882;5.984;2023-12-04T08:12:48;4.07;;;1.00;;
83380;SDS011;73285;50.882;5.984;2023-12-04T08:15:13;3.13;;;1.10;;
83380;SDS011;73285;50.882;5.984;2023-12-04T08:17:39;3.58;;;0.88;;
83380;SDS011;73285;50.882;5.984;2023-12-04T08:20:04;2.73;;;0.90;;
83380;SDS011;73285;50.882;5.984;2023-12-04T08:22:31;3.42;;;1.45;;
83380;SDS011;73285;50.882;5.984;2023-12-04T08:24:56;3.80;;;1.40;;
83380;SDS011;73285;50.882;5.984;2023-12-04T08:27:23;5.65;;;1.73;;
83380;SDS011;73285;50.882;5.984;2023-12-04T08:29:49;3.35;;;1.20;;
83380;SDS011;73285;50.882;5.984;2023-12-04T08:32:14;4.73;;;1.70;;
83380;SDS011;73285;50.882;5.984;2023-12-04T08:34:40;4.03;;;1.17;;
83380;SDS011;73285;50.882;5.984;2023-12-04T08:37:05;3.63;;;1.30;;
83380;SDS011;73285;50.882;5.984;2023-12-04T08:39:31;5.33;;;1.63;;
83380;SDS011;73285;50.882;5.984;2023-12-04T08:41:56;6.07;;;1.57;;
83380;SDS011;73285;50.882;5.984;2023-12-04T08:44:22;5.00;;;1.40;;
83380;SDS011;73285;50.882;5.984;2023-12-04T08:46:48;4.13;;;1.67;;
83380;SDS011;73285;50.882;5.984;2023-12-04T08:49:14;5.00;;;1.70;;
83380;SDS011;73285;50.882;5.984;2023-12-04T08:51:39;6.47;;;1.70;;
83380;SDS011;73285;50.882;5.984;2023-12-04T08:54:06;3.85;;;1.27;;
83380;SDS011;73285;50.882;5.984;2023-12-04T08:56:32;6.00;;;2.33;;
83380;SDS011;73285;50.882;5.984;2023-12-04T08:58:57;5.45;;;1.70;;
83380;SDS011;73285;50.882;5.984;2023-12-04T09:01:23;5.63;;;1.40;;
83380;SDS011;73285;50.882;5.984;2023-12-04T09:03:48;6.47;;;2.00;;
83380;SDS011;73285;50.882;5.984;2023-12-04T09:06:14;5.32;;;2.10;;
83380;SDS011;73285;50.882;5.984;2023-12-04T09:08:40;5.07;;;1.83;;
83380;SDS011;73285;50.882;5.984;2023-12-04T09:11:06;5.60;;;2.10;;
83380;SDS011;73285;50.882;5.984;2023-12-04T09:13:31;5.67;;;2.00;;
83380;SDS011;73285;50.882;5.984;2023-12-04T09:15:58;5.68;;;1.55;;
83380;SDS011;73285;50.882;5.984;2023-12-04T09:18:24;3.80;;;1.60;;
83380;SDS011;73285;50.882;5.984;2023-12-04T09:20:49;5.43;;;2.53;;
83380;SDS011;73285;50.882;5.984;2023-12-04T09:23:15;6.47;;;2.07;;
83380;SDS011;73285;50.882;5.984;2023-12-04T09:25:40;4.73;;;1.80;;
83380;SDS011;73285;50.882;5.984;2023-12-04T09:28:06;5.90;;;1.90;;
83380;SDS011;73285;50.882;5.984;2023-12-04T09:30:33;5.32;;;2.00;;
83380;SDS011;73285;50.882;5.984;2023-12-04T09:32:59;6.22;;;2.28;;
83380;SDS011;73285;50.882;5.984;2023-12-04T09:35:24;4.63;;;1.90;;
83380;SDS011;73285;50.882;5.984;2023-12-04T09:37:50;5.97;;;2.03;;
83380;SDS011;73285;50.882;5.984;2023-12-04T09:40:16;6.50;;;2.33;;
83380;SDS011;73285;50.882;5.984;2023-12-04T09:42:41;4.93;;;2.10;;
83380;SDS011;73285;50.882;5.984;2023-12-04T09:45:07;4.97;;;2.10;;
83380;SDS011;73285;50.882;5.984;2023-12-04T09:47:33;7.35;;;2.50;;
83380;SDS011;73285;50.882;5.984;2023-12-04T09:49:59;5.70;;;2.10;;
83380;SDS011;73285;50.882;5.984;2023-12-04T09:52:25;4.43;;;1.90;;
83380;SDS011;73285;50.882;5.984;2023-12-04T09:54:55;7.10;;;2.53;;
83380;SDS011;73285;50.882;5.984;2023-12-04T09:57:21;5.00;;;1.90;;
83380;SDS011;73285;50.882;5.984;2023-12-04T09:59:47;5.88;;;2.17;;
83380;SDS011;73285;50.882;5.984;2023-12-04T10:02:12;10.20;;;2.33;;
83380;SDS011;73285;50.882;5.984;2023-12-04T10:04:38;5.95;;;2.35;;
83380;SDS011;73285;50.882;5.984;2023-12-04T10:07:03;6.67;;;2.53;;
83380;SDS011;73285;50.882;5.984;2023-12-04T10:09:29;7.50;;;2.72;;
83380;SDS011;73285;50.882;5.984;2023-12-04T10:11:55;5.83;;;2.37;;
83380;SDS011;73285;50.882;5.984;2023-12-04T10:14:22;5.68;;;2.20;;
83380;SDS011;73285;50.882;5.984;2023-12-04T10:16:48;5.13;;;1.90;;
83380;SDS011;73285;50.882;5.984;2023-12-04T10:19:14;5.03;;;2.10;;
83380;SDS011;73285;50.882;5.984;2023-12-04T10:21:44;5.50;;;2.13;;
83380;SDS011;73285;50.882;5.984;2023-12-04T10:24:11;5.30;;;2.13;;
83380;SDS011;73285;50.882;5.984;2023-12-04T10:26:37;6.50;;;2.20;;
83380;SDS011;73285;50.882;5.984;2023-12-04T10:29:03;6.40;;;2.47;;
83380;SDS011;73285;50.882;5.984;2023-12-04T10:31:33;5.88;;;2.50;;
83380;SDS011;73285;50.882;5.984;2023-12-04T10:33:59;5.63;;;2.33;;
83380;SDS011;73285;50.882;5.984;2023-12-04T10:36:25;5.50;;;2.33;;
83380;SDS011;73285;50.882;5.984;2023-12-04T10:38:57;6.82;;;2.60;;
83380;SDS011;73285;50.882;5.984;2023-12-04T10:41:24;6.07;;;2.50;;
83380;SDS011;73285;50.882;5.984;2023-12-04T10:43:50;5.05;;;1.90;;
83380;SDS011;73285;50.882;5.984;2023-12-04T10:46:15;6.33;;;2.40;;
83380;SDS011;73285;50.882;5.984;2023-12-04T10:48:47;5.50;;;2.33;;
83380;SDS011;73285;50.882;5.984;2023-12-04T10:51:12;9.30;;;2.80;;
83380;SDS011;73285;50.882;5.984;2023-12-04T10:53:38;7.65;;;2.75;;
83380;SDS011;73285;50.882;5.984;2023-12-04T10:56:08;4.73;;;2.30;;
83380;SDS011;73285;50.882;5.984;2023-12-04T10:58:34;5.25;;;2.33;;
83380;SDS011;73285;50.882;5.984;2023-12-04T11:01:01;6.53;;;2.80;;
83380;SDS011;73285;50.882;5.984;2023-12-04T11:03:37;6.60;;;2.58;;
83380;SDS011;73285;50.882;5.984;2023-12-04T11:06:08;5.17;;;2.37;;
83380;SDS011;73285;50.882;5.984;2023-12-04T11:08:36;7.70;;;2.83;;
83380;SDS011;73285;50.882;5.984;2023-12-04T11:11:02;5.38;;;2.50;;
83380;SDS011;73285;50.882;5.984;2023-12-04T11:13:32;6.03;;;2.63;;
83380;SDS011;73285;50.882;5.984;2023-12-04T11:16:00;6.70;;;3.05;;
83380;SDS011;73285;50.882;5.984;2023-12-04T11:18:27;6.70;;;2.70;;
83380;SDS011;73285;50.882;5.984;2023-12-04T11:20:58;7.60;;;2.67;;
83380;SDS011;73285;50.882;5.984;2023-12-04T11:23:24;8.38;;;2.90;;
83380;SDS011;73285;50.882;5.984;2023-12-04T11:25:51;6.73;;;3.03;;
83380;SDS011;73285;50.882;5.984;2023-12-04T11:28:18;7.90;;;3.40;;
83380;SDS011;73285;50.882;5.984;2023-12-04T11:30:44;6.53;;;2.63;;
83380;SDS011;73285;50.882;5.984;2023-12-04T11:33:10;8.90;;;3.40;;
83380;SDS011;73285;50.882;5.984;2023-12-04T11:35:37;7.47;;;2.43;;
83380;SDS011;73285;50.882;5.984;2023-12-04T11:38:04;5.78;;;2.50;;
83380;SDS011;73285;50.882;5.984;2023-12-04T11:40:30;7.68;;;2.60;;
83380;SDS011;73285;50.882;5.984;2023-12-04T11:42:55;6.30;;;2.90;;
83380;SDS011;73285;50.882;5.984;2023-12-04T11:45:21;6.27;;;2.83;;
83380;SDS011;73285;50.882;5.984;2023-12-04T11:47:56;7.43;;;2.78;;
83380;SDS011;73285;50.882;5.984;2023-12-04T11:50:26;5.97;;;2.40;;
83380;SDS011;73285;50.882;5.984;2023-12-04T11:52:51;5.27;;;2.40;;
83380;SDS011;73285;50.882;5.984;2023-12-04T11:55:17;8.10;;;2.78;;
83380;SDS011;73285;50.882;5.984;2023-12-04T11:57:46;7.80;;;3.13;;
83380;SDS011;73285;50.882;5.984;2023-12-04T12:05:18;6.35;;;2.55;;
83380;SDS011;73285;50.882;5.984;2023-12-04T12:07:44;7.38;;;3.10;;
83380;SDS011;73285;50.882;5.984;2023-12-04T12:10:10;5.83;;;2.70;;
83380;SDS011;73285;50.882;5.984;2023-12-04T12:12:38;9.50;;;2.60;;
83380;SDS011;73285;50.882;5.984;2023-12-04T12:15:10;7.57;;;2.90;;
83380;SDS011;73285;50.882;5.984;2023-12-04T12:17:39;6.50;;;2.78;;
83380;SDS011;73285;50.882;5.984;2023-12-04T12:20:06;8.57;;;2.63;;
83380;SDS011;73285;50.882;5.984;2023-12-04T12:22:36;6.70;;;2.40;;
83380;SDS011;73285;50.882;5.984;2023-12-04T12:25:06;5.80;;;2.17;;
83380;SDS011;73285;50.882;5.984;2023-12-04T12:27:33;5.78;;;2.15;;
83380;SDS011;73285;50.882;5.984;2023-12-04T12:29:59;5.72;;;2.17;;
83380;SDS011;73285;50.882;5.984;2023-12-04T12:32:25;6.67;;;2.63;;
83380;SDS011;73285;50.882;5.984;2023-12-04T12:34:51;7.50;;;2.47;;
83380;SDS011;73285;50.882;5.984;2023-12-04T12:37:17;7.87;;;2.40;;
83380;SDS011;73285;50.882;5.984;2023-12-04T12:39:42;5.47;;;2.47;;
83380;SDS011;73285;50.882;5.984;2023-12-04T12:42:08;6.97;;;2.45;;
83380;SDS011;73285;50.882;5.984;2023-12-04T12:44:39;6.00;;;2.27;;
83380;SDS011;73285;50.882;5.984;2023-12-04T12:47:06;7.07;;;2.50;;
83380;SDS011;73285;50.882;5.984;2023-12-04T12:49:36;5.20;;;2.23;;
83380;SDS011;73285;50.882;5.984;2023-12-04T12:52:06;5.43;;;2.55;;
83380;SDS011;73285;50.882;5.984;2023-12-04T12:54:38;6.03;;;2.08;;
83380;SDS011;73285;50.882;5.984;2023-12-04T12:57:04;4.32;;;2.03;;
83380;SDS011;73285;50.882;5.984;2023-12-04T12:59:30;5.13;;;2.20;;
83380;SDS011;73285;50.882;5.984;2023-12-04T13:01:55;6.87;;;2.70;;
83380;SDS011;73285;50.882;5.984;2023-12-04T13:04:25;6.03;;;2.30;;
83380;SDS011;73285;50.882;5.984;2023-12-04T13:06:51;5.50;;;2.80;;
83380;SDS011;73285;50.882;5.984;2023-12-04T13:09:16;6.28;;;2.25;;
83380;SDS011;73285;50.882;5.984;2023-12-04T13:11:45;4.93;;;1.93;;
83380;SDS011;73285;50.882;5.984;2023-12-04T13:14:11;4.53;;;1.83;;
83380;SDS011;73285;50.882;5.984;2023-12-04T13:16:37;4.53;;;1.92;;
83380;SDS011;73285;50.882;5.984;2023-12-04T13:19:02;4.43;;;1.70;;
83380;SDS011;73285;50.882;5.984;2023-12-04T13:21:28;4.57;;;2.13;;
83380;SDS011;73285;50.882;5.984;2023-12-04T13:23:54;5.73;;;2.20;;
83380;SDS011;73285;50.882;5.984;2023-12-04T13:26:20;4.95;;;2.08;;
83380;SDS011;73285;50.882;5.984;2023-12-04T13:28:46;5.15;;;2.05;;
83380;SDS011;73285;50.882;5.984;2023-12-04T13:31:12;3.90;;;1.60;;
83380;SDS011;73285;50.882;5.984;2023-12-04T13:33:38;3.95;;;1.63;;
83380;SDS011;73285;50.882;5.984;2023-12-04T13:36:04;3.60;;;1.20;;
83380;SDS011;73285;50.882;5.984;2023-12-04T13:38:30;3.40;;;1.42;;
83380;SDS011;73285;50.882;5.984;2023-12-04T13:40:56;2.53;;;1.10;;
83380;SDS011;73285;50.882;5.984;2023-12-04T13:43:39;3.22;;;1.23;;
83380;SDS011;73285;50.882;5.984;2023-12-04T13:46:17;2.80;;;1.23;;
83380;SDS011;73285;50.882;5.984;2023-12-04T13:48:43;3.38;;;1.30;;
83380;SDS011;73285;50.882;5.984;2023-12-04T13:51:09;5.47;;;1.60;;
83380;SDS011;73285;50.882;5.984;2023-12-04T13:53:36;2.50;;;1.27;;
83380;SDS011;73285;50.882;5.984;2023-12-04T13:56:07;3.72;;;1.40;;
83380;SDS011;73285;50.882;5.984;2023-12-04T13:58:48;3.30;;;1.35;;
83380;SDS011;73285;50.882;5.984;2023-12-04T14:01:20;3.22;;;1.25;;
83380;SDS011;73285;50.882;5.984;2023-12-04T14:03:49;3.73;;;1.80;;
83380;SDS011;73285;50.882;5.984;2023-12-04T14:06:14;3.67;;;1.75;;
83380;SDS011;73285;50.882;5.984;2023-12-04T14:08:41;3.90;;;1.60;;
83380;SDS011;73285;50.882;5.984;2023-12-04T14:11:06;3.95;;;1.50;;
83380;SDS011;73285;50.882;5.984;2023-12-04T14:13:32;3.85;;;1.70;;
83380;SDS011;73285;50.882;5.984;2023-12-04T14:15:58;10.18;;;4.10;;
83380;SDS011;73285;50.882;5.984;2023-12-04T14:18:24;10.13;;;5.13;;
83380;SDS011;73285;50.882;5.984;2023-12-04T14:20:49;11.63;;;5.30;;
83380;SDS011;73285;50.882;5.984;2023-12-04T14:23:16;9.68;;;4.95;;
83380;SDS011;73285;50.882;5.984;2023-12-04T14:25:43;13.75;;;5.57;;
83380;SDS011;73285;50.882;5.984;2023-12-04T14:28:09;14.60;;;6.07;;
83380;SDS011;73285;50.882;5.984;2023-12-04T14:30:34;12.07;;;5.57;;
83380;SDS011;73285;50.882;5.984;2023-12-04T14:33:00;15.30;;;6.70;;
83380;SDS011;73285;50.882;5.984;2023-12-04T14:35:25;15.23;;;7.90;;
83380;SDS011;73285;50.882;5.984;2023-12-04T14:37:51;12.70;;;6.57;;
83380;SDS011;73285;50.882;5.984;2023-12-04T14:40:16;13.93;;;6.67;;
83380;SDS011;73285;50.882;5.984;2023-12-04T14:42:42;13.98;;;6.95;;
83380;SDS011;73285;50.882;5.984;2023-12-04T14:45:08;16.43;;;7.97;;